createdAt,value
2018-06-23T00:00:53.102Z,14.00
2018-06-23T00:01:53.057Z,13.50
2018-06-23T00:02:53.015Z,15.90
2018-06-23T00:03:52.972Z,16.30
2018-06-23T00:04:52.930Z,17.30
2018-06-23T00:05:52.887Z,18.30
2018-06-23T00:06:52.846Z,13.50
2018-06-23T00:07:52.802Z,15.50
2018-06-23T00:08:52.759Z,19.80
2018-06-23T00:09:52.730Z,18.80
2018-06-23T00:10:52.674Z,18.70
2018-06-23T00:11:52.633Z,13.10
2018-06-23T00:12:52.591Z,17.10
2018-06-23T00:13:52.551Z,16.70
2018-06-23T00:14:52.507Z,15.50
2018-06-23T00:15:52.460Z,16.60
2018-06-23T00:16:52.417Z,16.10
2018-06-23T00:17:52.375Z,16.10
2018-06-23T00:18:52.334Z,16.90
2018-06-23T00:19:52.288Z,13.80
2018-06-23T00:20:52.248Z,14.60
2018-06-23T00:21:52.205Z,17.20
2018-06-23T00:22:52.164Z,16.00
2018-06-23T00:23:52.120Z,14.60
2018-06-23T00:24:52.076Z,18.80
2018-06-23T00:25:52.037Z,15.40
2018-06-23T00:26:51.991Z,14.00
2018-06-23T00:27:51.949Z,13.90
2018-06-23T00:28:51.918Z,13.90
2018-06-23T00:29:51.867Z,15.60
2018-06-23T00:30:51.823Z,16.10
2018-06-23T00:31:51.779Z,16.30
2018-06-23T00:32:51.736Z,17.50
2018-06-23T00:33:51.691Z,18.10
2018-06-23T00:34:51.653Z,14.70
2018-06-23T00:35:51.608Z,17.50
2018-06-23T00:36:51.566Z,14.80
2018-06-23T00:37:51.523Z,17.10
2018-06-23T00:39:51.443Z,17.50
2018-06-23T00:40:51.393Z,12.20
2018-06-23T00:41:51.357Z,18.20
2018-06-23T00:42:51.310Z,16.30
2018-06-23T00:43:51.264Z,17.70
2018-06-23T00:44:51.221Z,19.80
2018-06-23T00:45:51.179Z,15.00
2018-06-23T00:46:51.139Z,17.40
2018-06-23T00:47:51.096Z,15.70
2018-06-23T00:48:51.049Z,15.50
2018-06-23T00:49:51.007Z,19.40
2018-06-23T00:50:50.969Z,15.60
2018-06-23T00:51:50.921Z,19.70
2018-06-23T00:52:50.880Z,19.60
2018-06-23T00:53:50.835Z,20.00
2018-06-23T00:54:50.790Z,17.80
2018-06-23T00:55:50.748Z,21.40
2018-06-23T00:56:50.709Z,19.20
2018-06-23T00:57:50.663Z,15.60
2018-06-23T00:58:50.622Z,18.90
2018-06-23T00:59:50.581Z,16.50
2018-06-23T01:00:50.540Z,19.60
2018-06-23T01:01:50.493Z,15.10
2018-06-23T01:02:50.448Z,14.70
2018-06-23T01:03:50.410Z,19.70
2018-06-23T01:04:50.365Z,16.60
2018-06-23T01:05:50.321Z,15.00
2018-06-23T01:06:50.275Z,16.90
2018-06-23T01:07:50.241Z,20.50
2018-06-23T01:08:50.219Z,19.20
2018-06-23T01:09:50.152Z,16.40
2018-06-23T01:10:50.109Z,18.70
2018-06-23T01:11:50.062Z,16.10
2018-06-23T01:12:50.020Z,14.00
2018-06-23T01:13:49.975Z,19.10
2018-06-23T01:14:49.935Z,16.50
2018-06-23T01:15:49.890Z,18.50
2018-06-23T01:16:49.851Z,19.00
2018-06-23T01:17:49.803Z,18.40
2018-06-23T01:18:49.762Z,15.40
2018-06-23T01:19:49.720Z,18.30
2018-06-23T01:20:49.674Z,15.80
2018-06-23T01:21:49.632Z,17.20
2018-06-23T01:22:49.587Z,14.70
2018-06-23T01:23:49.546Z,16.60
2018-06-23T01:24:49.502Z,18.80
2018-06-23T01:25:49.459Z,15.10
2018-06-23T01:26:49.415Z,19.70
2018-06-23T01:27:49.372Z,21.80
2018-06-23T01:28:49.335Z,20.20
2018-06-23T01:29:49.406Z,18.40
2018-06-23T01:30:49.292Z,18.00
2018-06-23T01:31:49.288Z,18.50
2018-06-23T01:32:49.179Z,24.40
2018-06-23T01:33:49.170Z,15.50
2018-06-23T01:34:49.165Z,14.30
2018-06-23T01:35:49.046Z,15.20
2018-06-23T01:36:49.044Z,17.90
2018-06-23T01:37:49.042Z,20.80
2018-06-23T01:38:48.930Z,15.20
2018-06-23T01:39:48.925Z,20.40
2018-06-23T01:40:48.928Z,15.50
2018-06-23T01:41:48.801Z,19.60
2018-06-23T01:42:48.802Z,21.90
2018-06-23T01:43:48.682Z,16.20
2018-06-23T01:44:48.682Z,14.50
2018-06-23T01:45:48.681Z,17.20
2018-06-23T01:46:48.561Z,18.50
2018-06-23T01:47:48.562Z,16.80
2018-06-23T01:48:48.559Z,22.10
2018-06-23T01:49:48.441Z,14.70
2018-06-23T01:50:48.442Z,20.30
2018-06-23T01:51:48.444Z,18.90
2018-06-23T01:52:48.320Z,19.20
2018-06-23T01:53:48.318Z,22.00
2018-06-23T01:54:48.279Z,19.20
2018-06-23T01:55:48.201Z,16.90
2018-06-23T01:56:48.198Z,21.00
2018-06-23T01:57:48.077Z,17.90
2018-06-23T01:58:48.084Z,18.20
2018-06-23T01:59:48.082Z,21.00
2018-06-23T02:00:47.959Z,17.50
2018-06-23T02:01:47.957Z,20.20
2018-06-23T02:02:47.958Z,17.90
2018-06-23T02:03:47.838Z,18.40
2018-06-23T02:04:47.839Z,18.00
2018-06-23T02:05:47.836Z,22.00
2018-06-23T02:06:47.716Z,13.90
2018-06-23T02:07:47.717Z,19.00
2018-06-23T02:08:47.599Z,17.30
2018-06-23T02:09:47.599Z,20.40
2018-06-23T02:10:47.600Z,17.30
2018-06-23T02:11:47.476Z,17.10
2018-06-23T02:12:47.475Z,13.40
2018-06-23T02:13:47.478Z,17.50
2018-06-23T02:14:47.356Z,14.90
2018-06-23T02:15:47.356Z,20.20
2018-06-23T02:16:47.354Z,16.90
2018-06-23T02:17:47.233Z,17.60
2018-06-23T02:18:47.234Z,20.30
2018-06-23T02:19:47.237Z,18.30
2018-06-23T02:20:47.112Z,19.20
2018-06-23T02:21:47.116Z,18.60
2018-06-23T02:22:46.998Z,16.70
2018-06-23T02:23:46.993Z,12.10
2018-06-23T02:24:46.992Z,19.30
2018-06-23T02:25:46.873Z,19.40
2018-06-23T02:26:46.875Z,19.30
2018-06-23T02:27:46.871Z,21.20
2018-06-23T02:28:46.758Z,18.00
2018-06-23T02:29:46.751Z,18.80
2018-06-23T02:30:46.753Z,17.90
2018-06-23T02:31:46.640Z,13.00
2018-06-23T02:32:46.640Z,16.10
2018-06-23T02:33:46.512Z,17.70
2018-06-23T02:34:46.513Z,17.80
2018-06-23T02:35:46.511Z,14.40
2018-06-23T02:36:46.392Z,17.60
2018-06-23T02:37:46.389Z,16.70
2018-06-23T02:38:46.390Z,19.10
2018-06-23T02:39:46.269Z,21.40
2018-06-23T02:40:46.269Z,12.50
2018-06-23T02:41:46.271Z,19.70
2018-06-23T02:42:46.151Z,17.60
2018-06-23T02:43:46.148Z,20.20
2018-06-23T02:44:46.151Z,14.70
2018-06-23T02:45:46.030Z,15.70
2018-06-23T02:46:46.031Z,15.40
2018-06-23T02:47:45.908Z,17.90
2018-06-23T02:48:45.910Z,18.30
2018-06-23T02:49:45.909Z,13.60
2018-06-23T02:50:45.796Z,17.70
2018-06-23T02:51:45.790Z,21.00
2018-06-23T02:52:45.787Z,19.70
2018-06-23T02:53:45.666Z,18.90
2018-06-23T02:54:45.665Z,17.40
2018-06-23T02:55:45.667Z,19.80
2018-06-23T02:56:45.545Z,13.40
2018-06-23T02:57:45.545Z,19.20
2018-06-23T02:58:45.425Z,17.70
2018-06-23T02:59:45.426Z,18.90
2018-06-23T03:00:45.428Z,16.90
2018-06-23T03:01:45.304Z,20.60
2018-06-23T03:02:45.311Z,19.90
2018-06-23T03:03:45.304Z,17.30
2018-06-23T03:04:45.186Z,19.00
2018-06-23T03:05:45.190Z,16.00
2018-06-23T03:06:45.186Z,21.50
2018-06-23T03:07:45.068Z,17.60
2018-06-23T03:08:45.063Z,18.20
2018-06-23T03:09:44.945Z,16.90
2018-06-23T03:10:44.945Z,23.10
2018-06-23T03:11:44.943Z,14.30
2018-06-23T03:12:44.836Z,17.60
2018-06-23T03:13:44.826Z,15.80
2018-06-23T03:14:44.823Z,17.90
2018-06-23T03:15:44.703Z,18.10
2018-06-23T03:16:44.703Z,17.10
2018-06-23T03:17:44.702Z,20.20
2018-06-23T03:18:44.580Z,19.80
2018-06-23T03:19:44.584Z,17.70
2018-06-23T03:20:44.579Z,15.70
2018-06-23T03:21:44.461Z,21.30
2018-06-23T03:22:44.461Z,17.20
2018-06-23T03:23:44.340Z,20.90
2018-06-23T03:24:44.340Z,14.70
2018-06-23T03:25:44.339Z,16.10
2018-06-23T03:26:44.223Z,20.10
2018-06-23T03:27:44.219Z,14.60
2018-06-23T03:28:44.218Z,18.60
2018-06-23T03:29:44.098Z,18.20
2018-06-23T03:30:44.099Z,15.80
2018-06-23T03:31:44.056Z,20.70
2018-06-23T03:32:43.978Z,15.70
2018-06-23T03:33:43.977Z,21.60
2018-06-23T03:34:43.865Z,15.60
2018-06-23T03:35:43.860Z,18.80
2018-06-23T03:36:43.857Z,15.70
2018-06-23T03:37:43.741Z,17.40
2018-06-23T03:38:43.736Z,14.40
2018-06-23T03:39:43.741Z,18.60
2018-06-23T03:40:43.618Z,17.60
2018-06-23T03:41:43.615Z,18.50
2018-06-23T03:42:43.577Z,17.20
2018-06-23T03:43:43.552Z,21.20
2018-06-23T03:44:43.495Z,19.30
2018-06-23T03:45:43.380Z,14.80
2018-06-23T03:46:43.374Z,15.50
2018-06-23T03:47:43.376Z,16.90
2018-06-23T03:48:43.258Z,19.90
2018-06-23T03:49:43.256Z,16.50
2018-06-23T03:50:43.256Z,17.50
2018-06-23T03:51:43.135Z,17.30
2018-06-23T03:52:43.135Z,16.00
2018-06-23T03:53:43.100Z,16.90
2018-06-23T03:54:43.016Z,12.90
2018-06-23T03:55:43.015Z,14.50
2018-06-23T03:56:42.892Z,18.00
2018-06-23T03:57:42.892Z,16.00
2018-06-23T03:58:42.892Z,20.00
2018-06-23T03:59:42.772Z,16.90
2018-06-23T04:00:42.776Z,15.60
2018-06-23T04:01:42.776Z,17.30
2018-06-23T04:02:42.651Z,17.20
2018-06-23T04:03:42.656Z,17.00
2018-06-23T04:04:42.647Z,18.90
2018-06-23T04:05:42.533Z,15.60
2018-06-23T04:06:42.532Z,17.50
2018-06-23T04:07:42.412Z,19.20
2018-06-23T04:08:42.409Z,20.20
2018-06-23T04:09:42.410Z,15.20
2018-06-23T04:10:42.291Z,17.50
2018-06-23T04:11:42.291Z,17.50
2018-06-23T04:12:42.294Z,12.50
2018-06-23T04:13:42.171Z,22.00
2018-06-23T04:14:42.170Z,17.60
2018-06-23T04:15:42.126Z,17.00
2018-06-23T04:16:42.101Z,16.00
2018-06-23T04:17:42.049Z,16.80
2018-06-23T04:18:41.930Z,19.80
2018-06-23T04:19:41.931Z,13.60
2018-06-23T04:20:41.930Z,15.60
2018-06-23T04:21:41.808Z,20.90
2018-06-23T04:22:41.806Z,18.20
2018-06-23T04:23:41.809Z,15.60
2018-06-23T04:24:41.686Z,14.10
2018-06-23T04:25:41.689Z,15.50
2018-06-23T04:26:41.644Z,18.10
2018-06-23T04:27:41.565Z,16.00
2018-06-23T04:28:41.566Z,20.40
2018-06-23T04:29:41.450Z,17.30
2018-06-23T04:30:41.447Z,15.80
2018-06-23T04:31:41.447Z,15.00
2018-06-23T04:32:41.329Z,22.00
2018-06-23T04:33:41.324Z,16.90
2018-06-23T04:34:41.325Z,23.90
2018-06-23T04:35:41.209Z,16.70
2018-06-23T04:36:41.208Z,18.90
2018-06-23T04:37:41.161Z,16.30
2018-06-23T04:38:41.085Z,17.30
2018-06-23T04:39:41.087Z,20.30
2018-06-23T04:40:40.967Z,15.10
2018-06-23T04:41:40.962Z,17.40
2018-06-23T04:42:40.963Z,21.40
2018-06-23T04:43:40.843Z,19.00
2018-06-23T04:44:40.847Z,18.90
2018-06-23T04:45:40.844Z,16.90
2018-06-23T04:46:40.723Z,18.50
2018-06-23T04:47:40.723Z,16.80
2018-06-23T04:48:40.722Z,20.60
2018-06-23T04:49:40.601Z,16.40
2018-06-23T04:50:40.602Z,18.00
2018-06-23T04:51:40.482Z,15.90
2018-06-23T04:52:40.479Z,17.90
2018-06-23T04:53:40.481Z,16.20
2018-06-23T04:54:40.363Z,16.30
2018-06-23T04:55:40.359Z,14.30
2018-06-23T04:56:40.359Z,20.20
2018-06-23T04:57:40.243Z,13.40
2018-06-23T04:58:40.242Z,13.50
2018-06-23T04:59:40.240Z,15.20
2018-06-23T05:00:40.121Z,17.20
2018-06-23T05:01:40.126Z,14.90
2018-06-23T05:02:40.002Z,17.20
2018-06-23T05:03:39.997Z,15.90
2018-06-23T05:04:39.998Z,13.60
2018-06-23T05:05:39.877Z,16.20
2018-06-23T05:06:39.881Z,16.50
2018-06-23T05:07:39.881Z,16.30
2018-06-23T05:08:39.758Z,16.80
2018-06-23T05:09:39.758Z,15.70
2018-06-23T05:10:39.756Z,19.50
2018-06-23T05:11:39.638Z,14.80
2018-06-23T05:12:39.636Z,15.30
2018-06-23T05:13:39.593Z,13.50
2018-06-23T05:14:39.517Z,16.50
2018-06-23T05:15:39.516Z,16.90
2018-06-23T05:16:39.398Z,18.10
2018-06-23T05:17:39.394Z,11.90
2018-06-23T05:18:39.394Z,15.70
2018-06-23T05:19:39.273Z,20.90
2018-06-23T05:20:39.274Z,15.60
2018-06-23T05:21:39.274Z,15.20
2018-06-23T05:22:39.154Z,13.50
2018-06-23T05:23:39.155Z,14.70
2018-06-23T05:24:39.159Z,18.00
2018-06-23T05:25:39.036Z,13.30
2018-06-23T05:26:39.032Z,14.60
2018-06-23T05:27:38.912Z,12.30
2018-06-23T05:28:38.914Z,14.90
2018-06-23T05:29:38.913Z,16.70
2018-06-23T05:30:38.791Z,16.00
2018-06-23T05:31:38.837Z,14.00
2018-06-23T05:32:38.793Z,12.40
2018-06-23T05:33:38.676Z,16.90
2018-06-23T05:34:38.673Z,15.00
2018-06-23T05:35:38.672Z,17.70
2018-06-23T05:36:38.549Z,14.70
2018-06-23T05:37:38.563Z,17.30
2018-06-23T05:38:38.508Z,15.80
2018-06-23T05:39:38.432Z,16.10
2018-06-23T05:40:38.430Z,11.20
2018-06-23T05:41:38.310Z,15.70
2018-06-23T05:42:38.309Z,15.50
2018-06-23T05:43:38.309Z,18.10
2018-06-23T05:44:38.188Z,15.50
2018-06-23T05:45:38.190Z,15.70
2018-06-23T05:46:38.188Z,12.50
2018-06-23T05:47:38.069Z,19.40
2018-06-23T05:48:38.067Z,12.30
2018-06-23T05:49:38.067Z,12.60
2018-06-23T05:50:37.951Z,11.20
2018-06-23T05:51:37.951Z,20.00
2018-06-23T05:52:37.825Z,14.30
2018-06-23T05:53:37.826Z,16.70
2018-06-23T05:54:37.837Z,14.70
2018-06-23T05:55:37.710Z,13.60
2018-06-23T05:56:37.710Z,17.50
2018-06-23T05:57:37.707Z,12.90
2018-06-23T05:58:37.586Z,14.40
2018-06-23T05:59:37.585Z,11.20
2018-06-23T06:00:37.611Z,13.40
2018-06-23T06:01:37.467Z,18.70
2018-06-23T06:02:37.466Z,14.00
2018-06-23T06:03:37.422Z,19.20
2018-06-23T06:04:37.346Z,16.90
2018-06-23T06:05:37.347Z,15.60
2018-06-23T06:06:37.228Z,19.00
2018-06-23T06:07:37.223Z,17.00
2018-06-23T06:08:37.224Z,20.10
2018-06-23T06:09:37.102Z,19.30
2018-06-23T06:10:37.103Z,18.50
2018-06-23T06:11:37.136Z,26.10
2018-06-23T06:12:36.984Z,26.90
2018-06-23T06:13:36.985Z,24.10
2018-06-23T06:14:36.984Z,21.70
2018-06-23T06:15:36.862Z,26.10
2018-06-23T06:16:36.861Z,20.20
2018-06-23T06:17:36.820Z,27.70
2018-06-23T06:18:36.742Z,27.40
2018-06-23T06:19:36.741Z,21.00
2018-06-23T06:20:36.623Z,28.90
2018-06-23T06:21:36.622Z,30.10
2018-06-23T06:22:36.620Z,23.70
2018-06-23T06:23:36.505Z,28.40
2018-06-23T06:24:36.499Z,24.40
2018-06-23T06:25:36.502Z,24.50
2018-06-23T06:26:36.379Z,26.40
2018-06-23T06:27:36.378Z,25.10
2018-06-23T06:28:36.380Z,30.20
2018-06-23T06:29:36.266Z,24.00
2018-06-23T06:30:36.260Z,28.10
2018-06-23T06:31:36.140Z,22.80
2018-06-23T06:32:36.141Z,23.10
2018-06-23T06:33:36.138Z,22.90
2018-06-23T06:34:36.019Z,21.40
2018-06-23T06:35:36.088Z,25.90
2018-06-23T06:36:36.022Z,22.80
2018-06-23T06:37:35.897Z,24.40
2018-06-23T06:38:35.896Z,20.10
2018-06-23T06:39:35.900Z,20.20
2018-06-23T06:40:35.778Z,18.30
2018-06-23T06:41:35.776Z,23.50
2018-06-23T06:42:35.780Z,22.70
2018-06-23T06:43:35.659Z,21.60
2018-06-23T06:44:35.712Z,23.40
2018-06-23T06:45:35.538Z,17.20
2018-06-23T06:46:35.536Z,28.60
2018-06-23T06:47:35.538Z,18.80
2018-06-23T06:48:35.416Z,17.00
2018-06-23T06:49:35.422Z,23.20
2018-06-23T06:50:35.422Z,19.40
2018-06-23T06:51:35.299Z,20.70
2018-06-23T06:52:35.300Z,22.10
2018-06-23T06:53:35.298Z,23.30
2018-06-23T06:54:35.172Z,20.90
2018-06-23T06:55:35.173Z,23.30
2018-06-23T06:56:35.176Z,20.20
2018-06-23T06:57:35.053Z,21.60
2018-06-23T06:58:35.052Z,17.30
2018-06-23T06:59:35.011Z,23.70
2018-06-23T07:00:34.977Z,19.20
2018-06-23T07:01:34.933Z,18.80
2018-06-23T07:02:34.812Z,15.80
2018-06-23T07:03:34.821Z,18.10
2018-06-23T07:04:34.819Z,18.80
2018-06-23T07:05:34.692Z,17.60
2018-06-23T07:06:34.691Z,23.40
2018-06-23T07:07:34.690Z,16.80
2018-06-23T07:08:34.572Z,17.10
2018-06-23T07:09:34.573Z,19.20
2018-06-23T07:10:34.571Z,18.40
2018-06-23T07:11:34.449Z,19.90
2018-06-23T07:12:34.453Z,22.40
2018-06-23T07:13:34.453Z,16.00
2018-06-23T07:14:34.328Z,20.20
2018-06-23T07:15:34.400Z,15.90
2018-06-23T07:16:34.286Z,22.50
2018-06-23T07:17:34.221Z,16.10
2018-06-23T07:18:34.209Z,14.60
2018-06-23T07:19:34.090Z,19.80
2018-06-23T07:20:34.112Z,21.20
2018-06-23T07:21:34.088Z,17.30
2018-06-23T07:22:33.971Z,13.60
2018-06-23T07:23:34.036Z,19.00
2018-06-23T07:24:33.969Z,24.80
2018-06-23T07:25:33.850Z,15.80
2018-06-23T07:26:33.852Z,17.60
2018-06-23T07:27:33.846Z,13.50
2018-06-23T07:28:33.734Z,18.10
2018-06-23T07:29:33.727Z,18.10
2018-06-23T07:30:33.754Z,18.70
2018-06-23T07:31:33.609Z,17.00
2018-06-23T07:32:33.604Z,15.80
2018-06-23T07:33:33.610Z,15.10
2018-06-23T07:34:33.586Z,11.50
2018-06-23T07:35:33.488Z,11.80
2018-06-23T07:36:33.444Z,14.60
2018-06-23T07:37:33.375Z,13.70
2018-06-23T07:38:35.524Z,13.10
2018-06-23T07:39:33.244Z,11.00
2018-06-23T07:40:33.306Z,10.30
2018-06-23T07:41:33.244Z,14.30
2018-06-23T07:42:33.124Z,12.80
2018-06-23T07:43:33.123Z,14.00
2018-06-23T07:44:33.198Z,13.70
2018-06-23T07:45:33.008Z,12.70
2018-06-23T07:46:33.073Z,13.80
2018-06-23T07:47:33.001Z,15.60
2018-06-23T07:48:32.881Z,15.20
2018-06-23T07:49:32.881Z,13.50
2018-06-23T07:50:32.887Z,15.20
2018-06-23T07:51:32.761Z,13.90
2018-06-23T07:52:32.763Z,11.40
2018-06-23T07:53:32.760Z,12.20
2018-06-23T07:54:32.643Z,16.50
2018-06-23T07:55:32.643Z,10.60
2018-06-23T07:56:32.648Z,14.30
2018-06-23T07:57:32.520Z,17.00
2018-06-23T07:58:32.520Z,14.70
2018-06-23T07:59:32.525Z,10.40
2018-06-23T08:00:32.399Z,9.80
2018-06-23T08:01:32.415Z,11.20
2018-06-23T08:02:32.277Z,13.20
2018-06-23T08:03:32.284Z,11.60
2018-06-23T08:04:32.280Z,10.50
2018-06-23T08:05:32.159Z,13.10
2018-06-23T08:06:32.159Z,11.10
2018-06-23T08:07:32.160Z,9.40
2018-06-23T08:08:32.037Z,9.40
2018-06-23T08:09:32.037Z,8.20
2018-06-23T08:10:32.038Z,9.60
2018-06-23T08:11:31.916Z,10.90
2018-06-23T08:12:31.916Z,10.00
2018-06-23T08:13:31.918Z,15.50
2018-06-23T08:14:31.800Z,10.20
2018-06-23T08:15:31.800Z,10.50
2018-06-23T08:16:31.798Z,12.70
2018-06-23T08:17:31.676Z,9.60
2018-06-23T08:18:31.777Z,11.90
2018-06-23T08:19:31.676Z,10.30
2018-06-23T08:20:31.556Z,10.00
2018-06-23T08:21:31.553Z,9.30
2018-06-23T08:22:31.555Z,14.30
2018-06-23T08:23:31.438Z,8.40
2018-06-23T08:24:31.436Z,9.40
2018-06-23T08:25:31.436Z,8.50
2018-06-23T08:26:31.408Z,8.50
2018-06-23T08:27:31.314Z,11.00
2018-06-23T08:28:31.317Z,6.60
2018-06-23T08:29:31.194Z,11.70
2018-06-23T08:30:31.195Z,11.00
2018-06-23T08:31:31.153Z,8.70
2018-06-23T08:32:31.071Z,12.50
2018-06-23T08:33:31.076Z,10.90
2018-06-23T08:34:30.953Z,8.50
2018-06-23T08:35:30.954Z,10.00
2018-06-23T08:36:30.993Z,10.20
2018-06-23T08:37:30.831Z,12.40
2018-06-23T08:38:30.834Z,9.10
2018-06-23T08:39:35.882Z,11.30
2018-06-23T08:40:30.712Z,10.20
2018-06-23T08:41:30.713Z,10.70
2018-06-23T08:42:30.711Z,7.60
2018-06-23T08:43:30.590Z,9.10
2018-06-23T08:44:30.589Z,11.00
2018-06-23T08:45:30.589Z,8.20
2018-06-23T08:46:30.472Z,8.40
2018-06-23T08:47:30.469Z,7.90
2018-06-23T08:48:30.469Z,8.80
2018-06-23T08:49:30.350Z,8.60
2018-06-23T08:50:30.348Z,8.20
2018-06-23T08:51:30.347Z,9.70
2018-06-23T08:52:30.227Z,8.80
2018-06-23T08:53:30.233Z,12.20
2018-06-23T08:54:30.227Z,7.50
2018-06-23T08:55:30.105Z,8.00
2018-06-23T08:56:30.105Z,9.90
2018-06-23T08:57:30.108Z,9.00
2018-06-23T08:58:29.986Z,8.10
2018-06-23T08:59:29.985Z,9.90
2018-06-23T09:00:29.992Z,8.30
2018-06-23T09:01:29.865Z,8.30
2018-06-23T09:02:29.865Z,5.30
2018-06-23T09:03:29.867Z,7.50
2018-06-23T09:04:29.757Z,6.80
2018-06-23T09:05:29.744Z,9.00
2018-06-23T09:06:29.746Z,8.50
2018-06-23T09:07:29.628Z,7.70
2018-06-23T09:08:29.624Z,8.20
2018-06-23T09:09:29.671Z,7.40
2018-06-23T09:10:29.506Z,6.60
2018-06-23T09:11:29.503Z,10.30
2018-06-23T09:12:29.503Z,7.60
2018-06-23T09:13:29.396Z,9.90
2018-06-23T09:14:29.382Z,7.90
2018-06-23T09:15:29.387Z,10.30
2018-06-23T09:16:29.262Z,12.10
2018-06-23T09:17:29.264Z,8.60
2018-06-23T09:18:29.262Z,10.10
2018-06-23T09:19:29.139Z,9.10
2018-06-23T09:20:29.141Z,7.40
2018-06-23T09:21:29.140Z,8.70
2018-06-23T09:22:29.021Z,10.10
2018-06-23T09:23:29.020Z,9.60
2018-06-23T09:24:29.019Z,9.80
2018-06-23T09:25:28.935Z,10.10
2018-06-23T09:26:28.899Z,10.70
2018-06-23T09:27:28.906Z,9.30
2018-06-23T09:28:28.784Z,6.90
2018-06-23T09:29:28.779Z,10.40
2018-06-23T09:30:28.780Z,10.00
2018-06-23T09:31:28.660Z,8.50
2018-06-23T09:32:28.656Z,9.20
2018-06-23T09:33:28.657Z,7.60
2018-06-23T09:34:28.595Z,8.70
2018-06-23T09:35:28.537Z,9.10
2018-06-23T09:36:28.537Z,10.00
2018-06-23T09:37:28.416Z,6.70
2018-06-23T09:38:28.421Z,11.10
2018-06-23T09:39:28.416Z,11.40
2018-06-23T09:40:28.297Z,7.80
2018-06-23T09:41:28.300Z,13.60
2018-06-23T09:42:28.297Z,10.60
2018-06-23T09:43:28.184Z,11.30
2018-06-23T09:44:28.174Z,8.30
2018-06-23T09:45:28.177Z,7.70
2018-06-23T09:46:28.053Z,9.40
2018-06-23T09:47:28.057Z,12.00
2018-06-23T09:48:28.054Z,12.00
2018-06-23T09:49:27.935Z,10.70
2018-06-23T09:50:27.931Z,10.10
2018-06-23T09:51:27.891Z,10.70
2018-06-23T09:52:27.813Z,8.80
2018-06-23T09:53:27.813Z,8.00
2018-06-23T09:54:27.695Z,5.90
2018-06-23T09:55:27.695Z,8.40
2018-06-23T09:56:27.692Z,8.70
2018-06-23T09:57:27.574Z,10.60
2018-06-23T09:58:27.572Z,7.90
2018-06-23T09:59:27.569Z,7.70
2018-06-23T10:00:27.454Z,8.00
2018-06-23T10:01:27.449Z,11.70
2018-06-23T10:02:27.451Z,9.20
2018-06-23T10:03:27.432Z,10.00
2018-06-23T10:04:27.332Z,9.80
2018-06-23T10:05:27.330Z,11.60
2018-06-23T10:06:27.212Z,11.50
2018-06-23T10:07:27.212Z,11.80
2018-06-23T10:08:27.346Z,9.50
2018-06-23T10:09:27.097Z,9.80
2018-06-23T10:10:27.092Z,8.20
2018-06-23T10:11:27.094Z,10.90
2018-06-23T10:12:26.968Z,10.00
2018-06-23T10:13:26.971Z,9.80
2018-06-23T10:14:26.968Z,8.20
2018-06-23T10:15:26.908Z,7.30
2018-06-23T10:16:26.850Z,10.20
2018-06-23T10:17:26.857Z,7.90
2018-06-23T10:18:26.728Z,8.00
2018-06-23T10:19:26.731Z,6.90
2018-06-23T10:20:26.726Z,9.10
2018-06-23T10:21:26.609Z,9.00
2018-06-23T10:22:26.611Z,12.80
2018-06-23T10:23:26.606Z,8.90
2018-06-23T10:24:26.493Z,8.90
2018-06-23T10:25:26.490Z,7.70
2018-06-23T10:26:26.493Z,11.60
2018-06-23T10:27:26.459Z,10.30
2018-06-23T10:28:26.364Z,8.20
2018-06-23T10:29:26.321Z,7.90
2018-06-23T10:30:26.245Z,10.70
2018-06-23T10:31:26.246Z,9.10
2018-06-23T10:32:26.128Z,8.70
2018-06-23T10:33:26.124Z,9.00
2018-06-23T10:34:26.122Z,6.90
2018-06-23T10:35:26.004Z,7.90
2018-06-23T10:36:26.003Z,9.00
2018-06-23T10:37:26.002Z,8.80
2018-06-23T10:38:25.893Z,8.70
2018-06-23T10:39:25.883Z,8.40
2018-06-23T10:40:25.882Z,8.10
2018-06-23T10:41:25.763Z,9.20
2018-06-23T10:42:25.762Z,9.30
2018-06-23T10:43:25.760Z,8.70
2018-06-23T10:44:25.639Z,8.70
2018-06-23T10:45:25.643Z,8.40
2018-06-23T10:46:25.696Z,13.30
2018-06-23T10:47:25.523Z,8.50
2018-06-23T10:48:25.518Z,7.50
2018-06-23T10:49:25.520Z,6.10
2018-06-23T10:50:25.399Z,7.80
2018-06-23T10:51:25.400Z,11.20
2018-06-23T10:52:25.398Z,6.80
2018-06-23T10:53:25.281Z,8.40
2018-06-23T10:54:25.282Z,8.70
2018-06-23T10:55:25.278Z,7.10
2018-06-23T10:56:25.157Z,8.60
2018-06-23T10:57:25.160Z,8.30
2018-06-23T10:58:25.161Z,8.80
2018-06-23T10:59:25.037Z,5.90
2018-06-23T11:00:25.037Z,7.50
2018-06-23T11:01:25.037Z,7.50
2018-06-23T11:02:24.917Z,7.30
2018-06-23T11:03:24.917Z,8.10
2018-06-23T11:04:24.924Z,8.50
2018-06-23T11:05:24.846Z,6.90
2018-06-23T11:06:24.798Z,7.20
2018-06-23T11:07:24.792Z,9.90
2018-06-23T11:08:24.677Z,8.80
2018-06-23T11:09:24.675Z,5.40
2018-06-23T11:10:24.674Z,7.40
2018-06-23T11:11:24.555Z,6.20
2018-06-23T11:12:24.554Z,6.30
2018-06-23T11:13:24.565Z,6.10
2018-06-23T11:14:24.434Z,4.30
2018-06-23T11:15:24.434Z,7.90
2018-06-23T11:16:24.433Z,6.60
2018-06-23T11:17:24.321Z,6.90
2018-06-23T11:18:24.313Z,5.90
2018-06-23T11:19:24.316Z,9.00
2018-06-23T11:20:24.194Z,9.30
2018-06-23T11:21:24.191Z,5.00
2018-06-23T11:22:24.193Z,6.40
2018-06-23T11:23:24.071Z,4.90
2018-06-23T11:24:24.082Z,5.70
2018-06-23T11:25:24.075Z,8.10
2018-06-23T11:26:23.956Z,5.20
2018-06-23T11:27:24.029Z,5.20
2018-06-23T11:28:23.951Z,4.90
2018-06-23T11:29:23.832Z,8.80
2018-06-23T11:30:23.829Z,6.40
2018-06-23T11:31:23.830Z,7.30
2018-06-23T11:32:23.713Z,8.90
2018-06-23T11:33:23.710Z,8.60
2018-06-23T11:34:23.711Z,6.10
2018-06-23T11:35:23.588Z,6.80
2018-06-23T11:36:23.589Z,5.10
2018-06-23T11:37:23.588Z,6.00
2018-06-23T11:38:23.473Z,5.70
2018-06-23T11:39:23.467Z,8.60
2018-06-23T11:40:23.467Z,7.50
2018-06-23T11:41:23.368Z,5.90
2018-06-23T11:42:23.348Z,5.80
2018-06-23T11:43:23.346Z,6.40
2018-06-23T11:44:23.227Z,7.30
2018-06-23T11:45:23.225Z,9.60
2018-06-23T11:46:23.228Z,6.90
2018-06-23T11:47:23.106Z,7.90
2018-06-23T11:48:23.104Z,6.70
2018-06-23T11:49:23.107Z,7.60
2018-06-23T11:50:22.989Z,7.20
2018-06-23T11:51:22.985Z,7.30
2018-06-23T11:52:23.073Z,6.30
2018-06-23T11:53:22.864Z,5.60
2018-06-23T11:54:22.869Z,9.40
2018-06-23T11:55:22.865Z,8.00
2018-06-23T11:56:22.743Z,4.50
2018-06-23T11:57:22.745Z,4.30
2018-06-23T11:58:22.744Z,4.80
2018-06-23T11:59:22.625Z,6.30
2018-06-23T12:00:22.622Z,8.20
2018-06-23T12:01:22.623Z,6.30
2018-06-23T12:02:22.501Z,8.30
2018-06-23T12:03:22.501Z,5.70
2018-06-23T12:04:22.500Z,5.70
2018-06-23T12:05:22.383Z,6.30
2018-06-23T12:06:22.382Z,4.90
2018-06-23T12:07:22.381Z,5.80
2018-06-23T12:08:22.261Z,7.00
2018-06-23T12:09:22.264Z,7.30
2018-06-23T12:10:22.261Z,6.70
2018-06-23T12:11:22.142Z,4.70
2018-06-23T12:12:22.139Z,7.00
2018-06-23T12:13:22.139Z,7.40
2018-06-23T12:14:22.097Z,7.30
2018-06-23T12:15:22.018Z,4.70
2018-06-23T12:16:22.020Z,5.40
2018-06-23T12:17:22.019Z,8.00
2018-06-23T12:18:21.900Z,5.60
2018-06-23T12:19:21.898Z,7.20
2018-06-23T12:20:21.900Z,6.30
2018-06-23T12:21:21.780Z,9.00
2018-06-23T12:22:21.776Z,5.80
2018-06-23T12:23:21.777Z,8.20
2018-06-23T12:24:21.660Z,6.90
2018-06-23T12:25:21.662Z,6.30
2018-06-23T12:26:21.659Z,7.20
2018-06-23T12:27:21.535Z,6.30
2018-06-23T12:28:21.536Z,5.60
2018-06-23T12:29:21.535Z,6.10
2018-06-23T12:30:21.441Z,3.90
2018-06-23T12:31:21.417Z,6.60
2018-06-23T12:32:21.423Z,6.70
2018-06-23T12:33:21.619Z,4.80
2018-06-23T12:34:21.337Z,5.30
2018-06-23T12:35:21.293Z,6.50
2018-06-23T12:36:21.174Z,8.20
2018-06-23T12:37:21.176Z,5.20
2018-06-23T12:38:21.175Z,5.80
2018-06-23T12:39:21.134Z,6.50
2018-06-23T12:40:21.253Z,6.10
2018-06-23T12:41:21.057Z,5.80
2018-06-23T12:42:21.055Z,5.00
2018-06-23T12:43:20.931Z,7.80
2018-06-23T12:44:20.930Z,7.60
2018-06-23T12:45:20.937Z,6.90
2018-06-23T12:46:20.812Z,7.50
2018-06-23T12:47:20.812Z,7.00
2018-06-23T12:48:21.042Z,8.40
2018-06-23T12:49:20.690Z,9.70
2018-06-23T12:50:20.694Z,6.30
2018-06-23T12:51:20.690Z,6.20
2018-06-23T12:52:20.570Z,8.70
2018-06-23T12:53:20.769Z,8.90
2018-06-23T12:54:20.568Z,7.10
2018-06-23T12:55:20.449Z,11.50
2018-06-23T12:56:20.450Z,6.70
2018-06-23T12:57:20.457Z,11.10
2018-06-23T12:58:20.327Z,8.00
2018-06-23T12:59:20.329Z,10.20
2018-06-23T13:00:20.329Z,6.10
2018-06-23T13:01:20.327Z,8.20